createdAt,value
2022-09-10T00:00:52.391Z,998.6
2022-09-10T00:01:52.370Z,998.52
2022-09-10T00:02:52.371Z,998.55
2022-09-10T00:03:52.355Z,998.52
2022-09-10T00:04:52.346Z,998.57
2022-09-10T00:05:52.332Z,998.53
2022-09-10T00:06:52.344Z,998.51
2022-09-10T00:07:52.332Z,998.46
2022-09-10T00:08:52.300Z,998.5
2022-09-10T00:09:52.314Z,998.44
2022-09-10T00:10:52.280Z,998.47
2022-09-10T00:11:52.271Z,998.44
2022-09-10T00:12:52.259Z,998.5
2022-09-10T00:13:52.247Z,998.54
2022-09-10T00:14:52.242Z,998.53
2022-09-10T00:15:52.235Z,998.54
2022-09-10T00:16:52.228Z,998.55
2022-09-10T00:17:52.207Z,998.54
2022-09-10T00:18:52.196Z,998.53
2022-09-10T00:19:52.184Z,998.52
2022-09-10T00:20:52.214Z,998.54
2022-09-10T00:21:52.167Z,998.57
2022-09-10T00:22:52.155Z,998.6
2022-09-10T00:23:52.146Z,998.56
2022-09-10T00:24:52.135Z,998.56
2022-09-10T00:25:52.123Z,998.59
2022-09-10T00:26:52.114Z,998.62
2022-09-10T00:27:52.115Z,998.61
2022-09-10T00:28:52.091Z,998.57
2022-09-10T00:29:52.129Z,998.65
2022-09-10T00:30:52.078Z,998.64
2022-09-10T00:31:52.064Z,998.61
2022-09-10T00:32:52.058Z,998.62
2022-09-10T00:33:52.036Z,998.61
2022-09-10T00:34:52.034Z,998.6
2022-09-10T00:35:52.019Z,998.63
2022-09-10T00:36:52.013Z,998.67
2022-09-10T00:37:51.997Z,998.63
2022-09-10T00:38:52.004Z,998.64
2022-09-10T00:39:51.984Z,998.68
2022-09-10T00:40:51.971Z,998.65
2022-09-10T00:41:51.961Z,998.64
2022-09-10T00:42:51.950Z,998.68
2022-09-10T00:43:51.937Z,998.66
2022-09-10T00:44:51.929Z,998.68
2022-09-10T00:45:51.923Z,998.64
2022-09-10T00:46:51.904Z,998.64
2022-09-10T00:47:51.901Z,998.69
2022-09-10T00:48:51.884Z,998.63
2022-09-10T00:49:51.876Z,998.67
2022-09-10T00:50:51.878Z,998.65
2022-09-10T00:51:51.849Z,998.67
2022-09-10T00:52:51.851Z,998.66
2022-09-10T00:53:51.904Z,998.7
2022-09-10T00:54:51.824Z,998.68
2022-09-10T00:55:51.811Z,998.66
2022-09-10T00:56:51.807Z,998.71
2022-09-10T00:57:51.788Z,998.75
2022-09-10T00:58:51.793Z,998.73
2022-09-10T00:59:51.781Z,998.76
2022-09-10T01:00:51.754Z,998.71
2022-09-10T01:01:51.763Z,998.71
2022-09-10T01:02:51.751Z,998.77
2022-09-10T01:03:51.721Z,998.74
2022-09-10T01:04:51.720Z,998.73
2022-09-10T01:05:51.713Z,998.74
2022-09-10T01:06:51.695Z,998.75
2022-09-10T01:07:51.686Z,998.76
2022-09-10T01:08:51.676Z,998.7
2022-09-10T01:09:51.667Z,998.74
2022-09-10T01:10:51.655Z,998.73
2022-09-10T01:11:51.645Z,998.74
2022-09-10T01:12:51.630Z,998.75
2022-09-10T01:13:51.625Z,998.72
2022-09-10T01:14:51.610Z,998.73
2022-09-10T01:15:51.602Z,998.76
2022-09-10T01:16:51.600Z,998.75
2022-09-10T01:17:51.582Z,998.73
2022-09-10T01:18:51.584Z,998.77
2022-09-10T01:19:51.566Z,998.81
2022-09-10T01:20:51.550Z,998.8
2022-09-10T01:21:51.536Z,998.77
2022-09-10T01:22:51.525Z,998.82
2022-09-10T01:23:51.520Z,998.82
2022-09-10T01:24:51.510Z,998.81
2022-09-10T01:25:51.509Z,998.81
2022-09-10T01:26:51.483Z,998.86
2022-09-10T01:27:51.472Z,998.86
2022-09-10T01:28:51.464Z,998.83
2022-09-10T01:29:51.472Z,998.86
2022-09-10T01:30:51.447Z,998.81
2022-09-10T01:31:51.444Z,998.81
2022-09-10T01:32:51.416Z,998.85
2022-09-10T01:33:51.416Z,998.86
2022-09-10T01:34:51.408Z,998.83
2022-09-10T01:35:51.396Z,998.86
2022-09-10T01:36:51.380Z,998.87
2022-09-10T01:37:51.371Z,998.81
2022-09-10T01:38:51.360Z,998.89
2022-09-10T01:39:51.352Z,998.83
2022-09-10T01:40:51.344Z,998.81
2022-09-10T01:41:51.330Z,998.8
2022-09-10T01:42:51.341Z,998.76
2022-09-10T01:43:51.335Z,998.77
2022-09-10T01:44:51.324Z,998.79
2022-09-10T01:45:51.287Z,998.78
2022-09-10T01:46:51.270Z,998.8
2022-09-10T01:47:51.264Z,998.79
2022-09-10T01:48:51.256Z,998.81
2022-09-10T01:49:51.239Z,998.8
2022-09-10T01:50:51.236Z,998.76
2022-09-10T01:51:51.224Z,998.73
2022-09-10T01:52:51.223Z,998.8
2022-09-10T01:53:51.200Z,998.78
2022-09-10T01:54:51.193Z,998.77
2022-09-10T01:55:51.203Z,998.76
2022-09-10T01:56:51.166Z,998.77
2022-09-10T01:57:51.155Z,998.77
2022-09-10T01:58:51.160Z,998.76
2022-09-10T01:59:51.151Z,998.78
2022-09-10T02:00:51.124Z,998.78
2022-09-10T02:01:51.121Z,998.78
2022-09-10T02:02:51.110Z,998.76
2022-09-10T02:03:51.112Z,998.79
2022-09-10T02:04:51.089Z,998.75
2022-09-10T02:05:51.079Z,998.72
2022-09-10T02:06:51.071Z,998.73
2022-09-10T02:07:51.066Z,998.72
2022-09-10T02:08:51.047Z,998.73
2022-09-10T02:09:51.041Z,998.77
2022-09-10T02:10:51.025Z,998.65
2022-09-10T02:11:51.024Z,998.69
2022-09-10T02:12:51.001Z,998.71
2022-09-10T02:13:50.998Z,998.67
2022-09-10T02:14:50.986Z,998.68
2022-09-10T02:15:50.975Z,998.68
2022-09-10T02:16:50.966Z,998.68
2022-09-10T02:17:50.959Z,998.65
2022-09-10T02:18:50.936Z,998.65
2022-09-10T02:19:50.927Z,998.69
2022-09-10T02:20:50.918Z,998.71
2022-09-10T02:21:50.912Z,998.7
2022-09-10T02:22:50.905Z,998.68
2022-09-10T02:23:50.891Z,998.71
2022-09-10T02:24:50.877Z,998.69
2022-09-10T02:25:50.864Z,998.67
2022-09-10T02:26:50.860Z,998.73
2022-09-10T02:27:50.853Z,998.71
2022-09-10T02:28:50.833Z,998.72
2022-09-10T02:29:50.827Z,998.72
2022-09-10T02:30:50.822Z,998.74
2022-09-10T02:31:50.803Z,998.74
2022-09-10T02:32:50.792Z,998.73
2022-09-10T02:33:50.776Z,998.73
2022-09-10T02:34:50.780Z,998.73
2022-09-10T02:35:50.774Z,998.74
2022-09-10T02:36:50.750Z,998.74
2022-09-10T02:37:50.740Z,998.75
2022-09-10T02:38:50.729Z,998.7
2022-09-10T02:39:50.718Z,998.76
2022-09-10T02:40:50.716Z,998.81
2022-09-10T02:41:50.704Z,998.76
2022-09-10T02:42:50.702Z,998.83
2022-09-10T02:43:50.675Z,998.76
2022-09-10T02:44:50.663Z,998.79
2022-09-10T02:45:50.662Z,998.8
2022-09-10T02:46:50.645Z,998.78
2022-09-10T02:47:50.628Z,998.79
2022-09-10T02:48:50.624Z,998.77
2022-09-10T02:49:50.607Z,998.8
2022-09-10T02:50:50.596Z,998.82
2022-09-10T02:51:50.595Z,998.76
2022-09-10T02:52:50.593Z,998.77
2022-09-10T02:53:50.567Z,998.73
2022-09-10T02:54:50.563Z,998.75
2022-09-10T02:55:50.555Z,998.7
2022-09-10T02:56:50.536Z,998.73
2022-09-10T02:57:50.530Z,998.65
2022-09-10T02:58:50.522Z,998.72
2022-09-10T02:59:50.506Z,998.72
2022-09-10T03:00:50.504Z,998.75
2022-09-10T03:01:50.496Z,998.76
2022-09-10T03:02:50.477Z,998.71
2022-09-10T03:03:50.466Z,998.77
2022-09-10T03:04:50.460Z,998.72
2022-09-10T03:05:50.467Z,998.72
2022-09-10T03:06:50.430Z,998.74
2022-09-10T03:07:50.420Z,998.73
2022-09-10T03:08:50.412Z,998.73
2022-09-10T03:09:50.402Z,998.74
2022-09-10T03:10:50.393Z,998.74
2022-09-10T03:11:50.379Z,998.78
2022-09-10T03:12:50.376Z,998.73
2022-09-10T03:13:50.358Z,998.77
2022-09-10T03:14:50.349Z,998.75
2022-09-10T03:15:50.348Z,998.74
2022-09-10T03:16:50.347Z,998.72
2022-09-10T03:17:50.321Z,998.73
2022-09-10T03:18:50.316Z,998.72
2022-09-10T03:19:50.292Z,998.68
2022-09-10T03:20:50.312Z,998.71
2022-09-10T03:21:50.283Z,998.71
2022-09-10T03:22:50.279Z,998.68
2022-09-10T03:23:50.259Z,998.65
2022-09-10T03:24:50.250Z,998.7
2022-09-10T03:25:50.231Z,998.66
2022-09-10T03:26:50.222Z,998.68
2022-09-10T03:27:50.224Z,998.69
2022-09-10T03:28:50.201Z,998.66
2022-09-10T03:29:50.208Z,998.64
2022-09-10T03:30:50.198Z,998.62
2022-09-10T03:31:50.170Z,998.65
2022-09-10T03:32:50.167Z,998.63
2022-09-10T03:33:50.155Z,998.66
2022-09-10T03:34:50.143Z,998.62
2022-09-10T03:35:50.138Z,998.69
2022-09-10T03:36:50.118Z,998.66
2022-09-10T03:37:50.111Z,998.67
2022-09-10T03:38:50.099Z,998.63
2022-09-10T03:39:50.099Z,998.59
2022-09-10T03:40:50.076Z,998.59
2022-09-10T03:41:50.064Z,998.67
2022-09-10T03:42:50.058Z,998.66
2022-09-10T03:43:50.048Z,998.66
2022-09-10T03:44:50.033Z,998.66
2022-09-10T03:45:50.031Z,998.68
2022-09-10T03:46:50.013Z,998.71
2022-09-10T03:47:50.014Z,998.7
2022-09-10T03:48:49.993Z,998.68
2022-09-10T03:49:49.994Z,998.64
2022-09-10T03:50:49.974Z,998.66
2022-09-10T03:51:49.958Z,998.73
2022-09-10T03:52:49.950Z,998.76
2022-09-10T03:53:49.944Z,998.75
2022-09-10T03:54:49.935Z,998.78
2022-09-10T03:55:49.915Z,998.75
2022-09-10T03:56:49.917Z,998.78
2022-09-10T03:57:49.900Z,998.8
2022-09-10T03:58:49.886Z,998.68
2022-09-10T03:59:49.874Z,998.75
2022-09-10T04:00:49.873Z,998.78
2022-09-10T04:01:49.863Z,998.82
2022-09-10T04:02:49.845Z,998.83
2022-09-10T04:03:49.831Z,998.84
2022-09-10T04:04:49.828Z,998.85
2022-09-10T04:05:49.815Z,998.82
2022-09-10T04:06:49.799Z,998.86
2022-09-10T04:07:49.788Z,998.85
2022-09-10T04:08:49.790Z,998.89
2022-09-10T04:09:49.772Z,998.91
2022-09-10T04:10:49.761Z,998.86
2022-09-10T04:11:49.817Z,998.82
2022-09-10T04:12:49.751Z,998.85
2022-09-10T04:13:49.750Z,998.92
2022-09-10T04:14:49.719Z,998.88
2022-09-10T04:15:49.712Z,998.83
2022-09-10T04:16:49.720Z,998.87
2022-09-10T04:17:49.683Z,998.9
2022-09-10T04:18:49.671Z,998.91
2022-09-10T04:19:49.699Z,998.88
2022-09-10T04:20:49.649Z,998.89
2022-09-10T04:21:49.649Z,998.92
2022-09-10T04:22:49.633Z,998.91
2022-09-10T04:23:49.722Z,998.92
2022-09-10T04:24:49.661Z,998.94
2022-09-10T04:25:49.607Z,998.95
2022-09-10T04:26:49.591Z,998.95
2022-09-10T04:27:49.577Z,998.93
2022-09-10T04:28:49.575Z,998.93
2022-09-10T04:29:49.555Z,998.96
2022-09-10T04:30:49.546Z,998.95
2022-09-10T04:31:49.555Z,999
2022-09-10T04:32:49.529Z,998.97
2022-09-10T04:33:49.514Z,998.98
2022-09-10T04:34:49.510Z,998.96
2022-09-10T04:35:49.493Z,998.96
2022-09-10T04:36:49.480Z,998.94
2022-09-10T04:37:49.476Z,998.97
2022-09-10T04:38:49.472Z,998.94
2022-09-10T04:39:49.446Z,998.92
2022-09-10T04:40:49.438Z,998.93
2022-09-10T04:41:49.426Z,998.96
2022-09-10T04:42:49.420Z,998.97
2022-09-10T04:43:49.427Z,998.97
2022-09-10T04:44:49.407Z,998.97
2022-09-10T04:45:49.397Z,998.97
2022-09-10T04:46:49.383Z,998.99
2022-09-10T04:47:49.362Z,998.98
2022-09-10T04:48:49.377Z,998.98
2022-09-10T04:49:49.356Z,998.98
2022-09-10T04:50:49.340Z,998.96
2022-09-10T04:51:49.334Z,999.02
2022-09-10T04:52:49.310Z,999
2022-09-10T04:53:49.319Z,999.13
2022-09-10T04:54:49.296Z,999.11
2022-09-10T04:55:49.300Z,999.12
2022-09-10T04:56:49.272Z,999.15
2022-09-10T04:57:49.271Z,999.12
2022-09-10T04:58:49.275Z,999.16
2022-09-10T04:59:49.242Z,999.15
2022-09-10T05:00:49.231Z,999.08
2022-09-10T05:01:49.237Z,999.14
2022-09-10T05:02:49.226Z,999.15
2022-09-10T05:03:49.205Z,999.1
2022-09-10T05:04:49.190Z,999.08
2022-09-10T05:05:49.173Z,999.08
2022-09-10T05:06:49.163Z,999.09
2022-09-10T05:07:49.153Z,999.06
2022-09-10T05:08:49.144Z,999.08
2022-09-10T05:09:49.138Z,999.06
2022-09-10T05:10:49.119Z,999.04
2022-09-10T05:11:49.108Z,999.15
2022-09-10T05:12:49.107Z,999.11
2022-09-10T05:13:49.091Z,999.09
2022-09-10T05:14:49.075Z,999.11
2022-09-10T05:15:49.063Z,999.06
2022-09-10T05:16:49.052Z,999.11
2022-09-10T05:17:49.042Z,999.07
2022-09-10T05:18:49.042Z,999.09
2022-09-10T05:19:49.019Z,999.08
2022-09-10T05:20:49.036Z,999.06
2022-09-10T05:21:49.001Z,999.05
2022-09-10T05:22:48.987Z,999.05
2022-09-10T05:23:48.988Z,999.08
2022-09-10T05:24:48.986Z,999.06
2022-09-10T05:25:48.957Z,999.06
2022-09-10T05:26:48.951Z,999.02
2022-09-10T05:27:48.937Z,999.03
2022-09-10T05:28:48.930Z,999.09
2022-09-10T05:29:48.915Z,999.12
2022-09-10T05:30:48.908Z,999.1
2022-09-10T05:31:48.897Z,999.11
2022-09-10T05:32:48.899Z,999.08
2022-09-10T05:33:48.873Z,999.12
2022-09-10T05:34:48.864Z,999.07
2022-09-10T05:35:48.859Z,999.1
2022-09-10T05:36:48.848Z,999.07
2022-09-10T05:37:48.831Z,999.01
2022-09-10T05:38:48.831Z,998.99
2022-09-10T05:39:48.827Z,999.11
2022-09-10T05:40:48.804Z,999.02
2022-09-10T05:41:48.800Z,999.15
2022-09-10T05:42:48.783Z,999.1
2022-09-10T05:43:48.774Z,999.05
2022-09-10T05:44:48.772Z,999.09
2022-09-10T05:45:48.752Z,999.09
2022-09-10T05:46:48.757Z,999.1
2022-09-10T05:47:48.730Z,999.15
2022-09-10T05:48:48.719Z,999.15
2022-09-10T05:49:48.707Z,999.08
2022-09-10T05:50:48.719Z,999.13
2022-09-10T05:51:48.728Z,999.07
2022-09-10T05:52:48.697Z,999.05
2022-09-10T05:53:48.688Z,999.05
2022-09-10T05:54:48.708Z,999.05
2022-09-10T05:55:48.717Z,999.09
2022-09-10T05:56:48.654Z,999.09
2022-09-10T05:57:48.623Z,999.08
2022-09-10T05:58:48.659Z,999.11
2022-09-10T05:59:48.677Z,999.07
2022-09-10T06:00:48.681Z,999.07
2022-09-10T06:01:48.658Z,999.1
2022-09-10T06:02:48.570Z,999.09
2022-09-10T06:03:48.604Z,999.13
2022-09-10T06:04:48.551Z,999.11
2022-09-10T06:05:48.541Z,999.09
2022-09-10T06:06:48.527Z,999.1
2022-09-10T06:07:48.519Z,999.12
2022-09-10T06:08:48.502Z,999.13
2022-09-10T06:09:48.492Z,999.11
2022-09-10T06:10:48.499Z,999.1
2022-09-10T06:11:48.500Z,999.12
2022-09-10T06:12:48.466Z,999.08
2022-09-10T06:13:48.467Z,999.17
2022-09-10T06:14:48.442Z,999.15
2022-09-10T06:15:48.435Z,999.14
2022-09-10T06:16:48.427Z,999.14
2022-09-10T06:17:48.423Z,999.14
2022-09-10T06:18:48.398Z,999.03
2022-09-10T06:19:48.393Z,999.06
2022-09-10T06:20:48.386Z,999.07
2022-09-10T06:21:48.393Z,999.12
2022-09-10T06:22:48.361Z,999.08
2022-09-10T06:23:48.353Z,999.1
2022-09-10T06:24:48.384Z,999.12
2022-09-10T06:25:48.365Z,999.11
2022-09-10T06:26:48.338Z,999.13
2022-09-10T06:27:48.312Z,999.15
2022-09-10T06:28:49.155Z,999.1
2022-09-10T06:29:48.319Z,999.13
2022-09-10T06:30:48.334Z,999.13
2022-09-10T06:31:48.310Z,999.13
2022-09-10T06:32:48.300Z,999.11
2022-09-10T06:33:48.265Z,999.11
2022-09-10T06:34:48.303Z,999.13
2022-09-10T06:35:48.222Z,999.15
2022-09-10T06:36:48.291Z,999.13
2022-09-10T06:37:48.275Z,999.14
2022-09-10T06:38:48.215Z,999.13
2022-09-10T06:39:48.258Z,999.12
2022-09-10T06:40:48.176Z,999.15
2022-09-10T06:41:48.224Z,999.13
2022-09-10T06:42:48.154Z,999.18
2022-09-10T06:43:48.138Z,999.16
2022-09-10T06:44:48.133Z,999.13
2022-09-10T06:45:48.143Z,999.19
2022-09-10T06:46:48.120Z,999.17
2022-09-10T06:48:48.110Z,999.18
2022-09-10T06:49:48.077Z,999.19
2022-09-10T06:50:48.128Z,999.22
2022-09-10T06:51:48.060Z,999.2
2022-09-10T06:52:48.070Z,999.2
2022-09-10T06:53:48.032Z,999.18
2022-09-10T06:54:48.020Z,999.22
2022-09-10T06:55:48.009Z,999.2
2022-09-10T06:56:48.009Z,999.22
2022-09-10T06:57:47.991Z,999.18
2022-09-10T06:58:47.984Z,999.2
2022-09-10T06:59:47.973Z,999.19
2022-09-10T07:00:47.956Z,999.22
2022-09-10T07:01:47.947Z,999.22
2022-09-10T07:02:47.942Z,999.21
2022-09-10T07:03:47.949Z,999.19
2022-09-10T07:04:47.916Z,999.19
2022-09-10T07:05:47.916Z,999.29
2022-09-10T07:06:47.901Z,999.24
2022-09-10T07:07:47.894Z,999.25
2022-09-10T07:08:47.881Z,999.25
2022-09-10T07:09:47.862Z,999.29
2022-09-10T07:10:47.854Z,999.34
2022-09-10T07:11:47.842Z,999.32
2022-09-10T07:12:47.830Z,999.3
2022-09-10T07:13:47.826Z,999.33
2022-09-10T07:14:47.836Z,999.36
2022-09-10T07:15:47.804Z,999.39
2022-09-10T07:16:47.790Z,999.28
2022-09-10T07:17:47.781Z,999.36
2022-09-10T07:18:47.768Z,999.27
2022-09-10T07:19:47.762Z,999.33
2022-09-10T07:20:47.753Z,999.3
2022-09-10T07:21:47.743Z,999.35
2022-09-10T07:22:47.729Z,999.39
2022-09-10T07:23:47.724Z,999.32
2022-09-10T07:24:47.708Z,999.36
2022-09-10T07:25:47.698Z,999.36
2022-09-10T07:26:47.687Z,999.33
2022-09-10T07:27:47.684Z,999.36
2022-09-10T07:28:47.666Z,999.35
2022-09-10T07:29:47.678Z,999.36
2022-09-10T07:30:47.643Z,999.37
2022-09-10T07:31:47.653Z,999.31
2022-09-10T07:32:47.629Z,999.32
2022-09-10T07:33:47.622Z,999.36
2022-09-10T07:34:47.603Z,999.35
2022-09-10T07:35:47.598Z,999.45
2022-09-10T07:36:47.599Z,999.4
2022-09-10T07:37:47.588Z,999.44
2022-09-10T07:38:47.556Z,999.43
2022-09-10T07:39:47.552Z,999.43
2022-09-10T07:40:47.543Z,999.49
2022-09-10T07:41:47.529Z,999.43
2022-09-10T07:42:47.520Z,999.5
2022-09-10T07:43:47.510Z,999.48
2022-09-10T07:44:47.503Z,999.48
2022-09-10T07:45:47.481Z,999.52
2022-09-10T07:46:47.477Z,999.49
2022-09-10T07:47:47.463Z,999.51
2022-09-10T07:48:47.453Z,999.49
2022-09-10T07:49:47.468Z,999.51
2022-09-10T07:50:47.434Z,999.55
2022-09-10T07:51:47.440Z,999.51
2022-09-10T07:52:47.412Z,999.53
2022-09-10T07:53:47.415Z,999.54
2022-09-10T07:54:47.393Z,999.54
2022-09-10T07:55:47.378Z,999.56
2022-09-10T07:56:47.382Z,999.55
2022-09-10T07:57:47.357Z,999.61
2022-09-10T07:58:47.354Z,999.62
2022-09-10T07:59:47.345Z,999.57
2022-09-10T08:00:47.374Z,999.59
2022-09-10T08:01:48.163Z,999.58
2022-09-10T08:02:47.310Z,999.61
2022-09-10T08:03:47.337Z,999.62
2022-09-10T08:04:47.291Z,999.67
2022-09-10T08:05:47.287Z,999.63
2022-09-10T08:06:47.270Z,999.64
2022-09-10T08:07:47.249Z,999.67
2022-09-10T08:08:47.240Z,999.62
2022-09-10T08:09:47.239Z,999.62
2022-09-10T08:10:47.222Z,999.63
2022-09-10T08:11:47.214Z,999.64
2022-09-10T08:12:47.198Z,999.66
2022-09-10T08:13:47.188Z,999.76
2022-09-10T08:14:47.176Z,999.71
2022-09-10T08:15:47.173Z,999.72
2022-09-10T08:16:47.156Z,999.67
2022-09-10T08:17:47.144Z,999.74
2022-09-10T08:18:47.143Z,999.74
2022-09-10T08:19:47.137Z,999.76
2022-09-10T08:20:47.115Z,999.81
2022-09-10T08:21:47.103Z,999.75
2022-09-10T08:22:47.125Z,999.79
2022-09-10T08:23:47.081Z,999.82
2022-09-10T08:24:47.069Z,999.83
2022-09-10T08:25:47.056Z,999.83
2022-09-10T08:26:47.050Z,999.82
2022-09-10T08:27:47.040Z,999.88
2022-09-10T08:28:47.031Z,999.82
2022-09-10T08:29:47.037Z,999.87
2022-09-10T08:30:47.011Z,999.96
2022-09-10T08:31:46.999Z,999.88
2022-09-10T08:32:46.984Z,999.91
2022-09-10T08:33:46.976Z,999.92
2022-09-10T08:34:46.964Z,999.84
2022-09-10T08:35:46.990Z,999.92
2022-09-10T08:36:46.946Z,999.88
2022-09-10T08:37:46.947Z,999.92
2022-09-10T08:38:46.923Z,999.99
2022-09-10T08:39:46.913Z,999.98
2022-09-10T08:40:46.901Z,999.95
2022-09-10T08:41:46.900Z,1000.01
2022-09-10T08:42:46.879Z,999.99
2022-09-10T08:43:46.869Z,999.97
2022-09-10T08:44:46.860Z,1000.02
2022-09-10T08:45:46.853Z,999.97
2022-09-10T08:46:46.833Z,1000.05
2022-09-10T08:47:46.865Z,999.99
2022-09-10T08:48:46.825Z,999.99
2022-09-10T08:49:46.805Z,1000.08
2022-09-10T08:50:46.800Z,1000.07
2022-09-10T08:51:46.789Z,1000.11
2022-09-10T08:52:46.775Z,1000.08
2022-09-10T08:53:46.781Z,1000.06
2022-09-10T08:54:46.755Z,1000.05
2022-09-10T08:55:46.740Z,1000.03
2022-09-10T08:56:46.751Z,1000.06
2022-09-10T08:57:46.726Z,1000.07
2022-09-10T08:58:46.717Z,1000.11
2022-09-10T08:59:46.703Z,1000.1
2022-09-10T09:00:46.707Z,1000.08
2022-09-10T09:01:46.681Z,1000.11
2022-09-10T09:02:46.669Z,1000.13
2022-09-10T09:03:46.673Z,1000.13
2022-09-10T09:04:46.647Z,1000.12
2022-09-10T09:05:46.635Z,1000.13
2022-09-10T09:06:46.626Z,1000.12
2022-09-10T09:07:46.622Z,1000.12
2022-09-10T09:08:46.615Z,1000.17
2022-09-10T09:09:46.611Z,1000.18
2022-09-10T09:10:46.586Z,1000.16
2022-09-10T09:11:46.574Z,1000.2
2022-09-10T09:12:46.573Z,1000.17
2022-09-10T09:13:46.562Z,1000.13
2022-09-10T09:14:46.573Z,1000.2
2022-09-10T09:15:46.545Z,1000.16
2022-09-10T09:16:46.527Z,1000.2
2022-09-10T09:17:46.514Z,1000.2
2022-09-10T09:18:46.514Z,1000.18
2022-09-10T09:19:46.493Z,1000.2
2022-09-10T09:20:46.476Z,1000.19
2022-09-10T09:21:46.470Z,1000.16
2022-09-10T09:22:46.489Z,1000.12
2022-09-10T09:23:46.478Z,1000.12
2022-09-10T09:24:46.436Z,1000.09
2022-09-10T09:25:46.430Z,1000.09
2022-09-10T09:26:46.425Z,1000.07
2022-09-10T09:27:46.404Z,1000.07
2022-09-10T09:28:46.413Z,1000.11
2022-09-10T09:29:46.384Z,1000.09
2022-09-10T09:30:46.426Z,1000.12
2022-09-10T09:31:46.359Z,1000.11
2022-09-10T09:32:46.359Z,1000.14
2022-09-10T09:33:46.358Z,1000.17
2022-09-10T09:34:46.334Z,1000.11
2022-09-10T09:35:46.320Z,1000.18
2022-09-10T09:36:46.318Z,1000.16
2022-09-10T09:37:46.301Z,1000.28
2022-09-10T09:38:46.330Z,1000.23
2022-09-10T09:39:46.275Z,1000.21
2022-09-10T09:40:46.268Z,1000.17
2022-09-10T09:41:46.258Z,1000.21
2022-09-10T09:42:46.246Z,1000.16
2022-09-10T09:43:46.234Z,1000.18
2022-09-10T09:44:46.230Z,1000.2
2022-09-10T09:45:46.224Z,1000.11
2022-09-10T09:46:46.201Z,1000.22
2022-09-10T09:47:46.193Z,1000.25
2022-09-10T09:48:46.181Z,1000.19
2022-09-10T09:49:46.170Z,1000.21
2022-09-10T09:50:46.184Z,1000.19
2022-09-10T09:51:46.156Z,1000.18
2022-09-10T09:52:46.139Z,1000.19
2022-09-10T09:53:46.131Z,1000.17
2022-09-10T09:54:46.115Z,1000.13
2022-09-10T09:55:46.114Z,1000.16
2022-09-10T09:56:46.115Z,1000.12
2022-09-10T09:57:46.092Z,1000.17
2022-09-10T09:58:46.071Z,1000.13
2022-09-10T09:59:46.063Z,1000.13
2022-09-10T10:00:46.052Z,1000.09
2022-09-10T10:01:46.072Z,1000.06
2022-09-10T10:02:46.077Z,1000.08
2022-09-10T10:03:46.032Z,1000.07
2022-09-10T10:04:46.038Z,1000.02
2022-09-10T10:05:46.005Z,1000.05
2022-09-10T10:06:45.991Z,1000.05
2022-09-10T10:07:45.981Z,1000.07
2022-09-10T10:08:45.970Z,1000.03
2022-09-10T10:09:45.978Z,1000.03
2022-09-10T10:10:45.960Z,1000.05
2022-09-10T10:11:48.659Z,1000.02
2022-09-10T10:12:45.922Z,1000.02
2022-09-10T10:13:45.916Z,999.97
2022-09-10T10:14:45.910Z,999.99
2022-09-10T10:15:45.892Z,1000.01
2022-09-10T10:16:45.889Z,999.95
2022-09-10T10:17:45.877Z,999.97
2022-09-10T10:18:45.861Z,999.92
2022-09-10T10:19:45.872Z,999.93
2022-09-10T10:20:45.852Z,999.97
2022-09-10T10:21:45.836Z,999.93
2022-09-10T10:22:45.826Z,999.97
2022-09-10T10:23:45.813Z,999.96
2022-09-10T10:24:45.802Z,1000
2022-09-10T10:25:45.810Z,999.96
2022-09-10T10:26:45.789Z,999.93
2022-09-10T10:27:45.774Z,1000.02
2022-09-10T10:28:45.761Z,999.94
2022-09-10T10:29:45.753Z,999.88
2022-09-10T10:30:45.738Z,1000.04
2022-09-10T10:31:45.737Z,999.94
2022-09-10T10:32:45.789Z,999.85
2022-09-10T10:33:45.704Z,999.86
2022-09-10T10:34:45.697Z,999.9
2022-09-10T10:35:45.688Z,999.94
2022-09-10T10:36:45.676Z,999.93
2022-09-10T10:37:45.664Z,999.97
2022-09-10T10:38:45.654Z,999.97
2022-09-10T10:39:45.646Z,999.85
2022-09-10T10:40:45.647Z,999.96
2022-09-10T10:41:45.619Z,999.96
2022-09-10T10:42:45.644Z,999.91
2022-09-10T10:43:45.608Z,999.98
2022-09-10T10:44:45.597Z,999.86
2022-09-10T10:45:45.586Z,999.95
2022-09-10T10:46:45.569Z,1000
2022-09-10T10:47:45.569Z,999.97
2022-09-10T10:48:45.553Z,1000.03
2022-09-10T10:49:45.551Z,999.85
2022-09-10T10:50:45.529Z,1000.05
2022-09-10T10:51:45.516Z,1000.01
2022-09-10T10:52:45.506Z,999.89
2022-09-10T10:53:45.500Z,999.95
2022-09-10T10:54:45.494Z,999.88
2022-09-10T10:55:45.489Z,999.85
2022-09-10T10:56:45.464Z,999.87
2022-09-10T10:57:45.461Z,999.85
2022-09-10T10:58:45.483Z,999.83
2022-09-10T10:59:45.544Z,999.82
2022-09-10T11:00:45.429Z,999.85
2022-09-10T11:01:45.446Z,999.86
2022-09-10T11:02:45.404Z,999.83
2022-09-10T11:03:45.442Z,999.79
2022-09-10T11:04:45.401Z,999.8
2022-09-10T11:05:45.376Z,999.86
2022-09-10T11:06:45.375Z,999.79
2022-09-10T11:07:45.356Z,999.8
2022-09-10T11:08:45.354Z,999.74
2022-09-10T11:09:45.329Z,999.77
2022-09-10T11:10:45.325Z,999.78
2022-09-10T11:11:45.315Z,999.83
2022-09-10T11:12:45.299Z,999.78
2022-09-10T11:13:46.172Z,999.82
2022-09-10T11:14:45.277Z,999.77
2022-09-10T11:15:45.267Z,999.8
2022-09-10T11:16:45.262Z,999.8
2022-09-10T11:17:45.249Z,999.77
2022-09-10T11:18:45.258Z,999.83
2022-09-10T11:19:45.237Z,999.77
2022-09-10T11:20:45.213Z,999.76
2022-09-10T11:21:45.205Z,999.78
2022-09-10T11:22:45.196Z,999.74
2022-09-10T11:23:45.191Z,999.74
2022-09-10T11:24:45.194Z,999.82
2022-09-10T11:25:45.159Z,999.81
2022-09-10T11:26:45.156Z,999.92
2022-09-10T11:27:45.141Z,999.96
2022-09-10T11:28:45.136Z,999.83
2022-09-10T11:29:45.121Z,1000.04
2022-09-10T11:30:45.151Z,999.9
2022-09-10T11:31:45.103Z,999.88
2022-09-10T11:32:45.091Z,1000.11
2022-09-10T11:33:45.083Z,999.97
2022-09-10T11:34:45.079Z,999.67
2022-09-10T11:35:45.061Z,1000.02
2022-09-10T11:36:45.055Z,999.99
2022-09-10T11:37:45.037Z,999.94
2022-09-10T11:38:45.027Z,999.96
2022-09-10T11:39:45.014Z,999.96
2022-09-10T11:40:45.010Z,999.93
2022-09-10T11:41:44.997Z,1000.01
2022-09-10T11:42:44.987Z,1000.12
2022-09-10T11:43:44.980Z,999.97
2022-09-10T11:44:44.976Z,1000.03
2022-09-10T11:45:44.976Z,999.62
2022-09-10T11:46:44.960Z,999.56
2022-09-10T11:47:44.942Z,999.55
2022-09-10T11:48:44.951Z,999.6
2022-09-10T11:49:44.915Z,999.68
2022-09-10T11:50:44.904Z,999.75
2022-09-10T11:51:44.902Z,999.82
2022-09-10T11:52:44.919Z,999.72
2022-09-10T11:53:44.885Z,999.61
2022-09-10T11:54:44.876Z,999.58
2022-09-10T11:55:44.865Z,999.54
2022-09-10T11:56:44.861Z,999.59
2022-09-10T11:57:44.846Z,999.57
2022-09-10T11:58:44.833Z,999.55
2022-09-10T11:59:44.815Z,999.57
2022-09-10T12:00:44.813Z,999.59
2022-09-10T12:01:44.805Z,999.63
2022-09-10T12:02:44.784Z,999.62
2022-09-10T12:03:44.773Z,999.67
2022-09-10T12:04:44.765Z,999.62
2022-09-10T12:05:44.754Z,999.68
2022-09-10T12:06:44.760Z,999.67
2022-09-10T12:07:44.813Z,999.69
2022-09-10T12:08:44.731Z,999.65
2022-09-10T12:09:44.712Z,999.68
2022-09-10T12:10:44.700Z,999.68
2022-09-10T12:11:44.694Z,999.71
2022-09-10T12:12:44.682Z,999.67
2022-09-10T12:13:44.670Z,999.63
2022-09-10T12:14:44.661Z,999.75
2022-09-10T12:15:44.669Z,999.72
2022-09-10T12:16:44.641Z,999.68
2022-09-10T12:17:44.681Z,999.7
2022-09-10T12:18:44.621Z,999.68
2022-09-10T12:19:44.609Z,1000.04
2022-09-10T12:20:44.606Z,999.76
2022-09-10T12:21:44.590Z,999.74
2022-09-10T12:22:44.606Z,999.74
2022-09-10T12:23:44.589Z,999.8
2022-09-10T12:24:44.588Z,999.76
2022-09-10T12:25:44.549Z,999.73
2022-09-10T12:26:44.548Z,999.73
2022-09-10T12:27:44.541Z,999.72
2022-09-10T12:28:44.522Z,999.81